sensor_id;sensor_type;location;lat;lon;timestamp;pressure;altitude;pressure_sealevel;temperature;humidity
11413;BME280;5762;43.256;26.960;2023-10-19T00:00:38;99608.89;;;9.23;100.00
11413;BME280;5762;43.256;26.960;2023-10-19T00:03:07;99611.69;;;9.15;100.00
11413;BME280;5762;43.256;26.960;2023-10-19T00:05:36;99610.08;;;9.14;100.00
11413;BME280;5762;43.256;26.960;2023-10-19T00:08:05;99609.77;;;8.99;100.00
11413;BME280;5762;43.256;26.960;2023-10-19T00:10:35;99611.41;;;8.98;100.00
11413;BME280;5762;43.256;26.960;2023-10-19T00:13:04;99606.91;;;8.91;100.00
11413;BME280;5762;43.256;26.960;2023-10-19T00:15:33;99607.26;;;8.84;100.00
11413;BME280;5762;43.256;26.960;2023-10-19T00:18:02;99601.38;;;8.80;100.00
11413;BME280;5762;43.256;26.960;2023-10-19T00:20:34;99600.34;;;8.76;100.00
11413;BME280;5762;43.256;26.960;2023-10-19T00:23:13;99601.70;;;8.76;100.00
11413;BME280;5762;43.256;26.960;2023-10-19T00:25:42;99596.08;;;8.72;100.00
11413;BME280;5762;43.256;26.960;2023-10-19T00:28:11;99597.68;;;8.73;100.00
11413;BME280;5762;43.256;26.960;2023-10-19T00:30:40;99581.78;;;8.71;100.00
11413;BME280;5762;43.256;26.960;2023-10-19T00:33:09;99578.73;;;8.78;100.00
11413;BME280;5762;43.256;26.960;2023-10-19T00:35:38;99580.46;;;8.69;100.00
11413;BME280;5762;43.256;26.960;2023-10-19T00:38:07;99582.33;;;8.71;100.00
11413;BME280;5762;43.256;26.960;2023-10-19T00:40:52;99581.81;;;8.69;100.00
11413;BME280;5762;43.256;26.960;2023-10-19T00:43:32;99580.17;;;8.70;100.00
11413;BME280;5762;43.256;26.960;2023-10-19T00:45:57;99579.66;;;8.68;100.00
11413;BME280;5762;43.256;26.960;2023-10-19T00:48:25;99580.55;;;8.64;100.00
11413;BME280;5762;43.256;26.960;2023-10-19T00:50:54;99573.81;;;8.64;100.00
11413;BME280;5762;43.256;26.960;2023-10-19T00:53:36;99578.11;;;8.65;100.00
11413;BME280;5762;43.256;26.960;2023-10-19T00:56:06;99570.34;;;8.61;100.00
11413;BME280;5762;43.256;26.960;2023-10-19T00:58:35;99570.42;;;8.53;100.00
11413;BME280;5762;43.256;26.960;2023-10-19T01:01:06;99577.95;;;8.56;100.00
11413;BME280;5762;43.256;26.960;2023-10-19T01:03:35;99571.29;;;8.49;100.00
11413;BME280;5762;43.256;26.960;2023-10-19T01:06:04;99574.56;;;8.46;100.00
11413;BME280;5762;43.256;26.960;2023-10-19T01:08:33;99570.23;;;8.47;100.00
11413;BME280;5762;43.256;26.960;2023-10-19T01:11:02;99574.30;;;8.45;100.00
11413;BME280;5762;43.256;26.960;2023-10-19T01:13:31;99573.55;;;8.39;100.00
11413;BME280;5762;43.256;26.960;2023-10-19T01:16:00;99564.69;;;8.36;100.00
11413;BME280;5762;43.256;26.960;2023-10-19T01:18:29;99563.00;;;8.43;100.00
11413;BME280;5762;43.256;26.960;2023-10-19T01:21:01;99562.82;;;8.58;100.00
11413;BME280;5762;43.256;26.960;2023-10-19T01:23:30;99554.27;;;8.51;100.00
11413;BME280;5762;43.256;26.960;2023-10-19T01:25:59;99564.80;;;8.50;100.00
11413;BME280;5762;43.256;26.960;2023-10-19T01:28:29;99563.25;;;8.44;100.00
11413;BME280;5762;43.256;26.960;2023-10-19T01:31:20;99560.36;;;8.37;100.00
11413;BME280;5762;43.256;26.960;2023-10-19T01:33:58;99559.66;;;8.27;100.00
11413;BME280;5762;43.256;26.960;2023-10-19T01:36:27;99558.37;;;8.22;100.00
11413;BME280;5762;43.256;26.960;2023-10-19T01:38:57;99547.64;;;8.17;100.00
11413;BME280;5762;43.256;26.960;2023-10-19T01:41:27;99549.06;;;8.09;100.00
11413;BME280;5762;43.256;26.960;2023-10-19T01:43:56;99550.41;;;8.09;100.00
11413;BME280;5762;43.256;26.960;2023-10-19T01:46:24;99548.83;;;8.05;100.00
11413;BME280;5762;43.256;26.960;2023-10-19T01:48:54;99550.95;;;8.08;100.00
11413;BME280;5762;43.256;26.960;2023-10-19T01:51:23;99550.44;;;8.06;100.00
11413;BME280;5762;43.256;26.960;2023-10-19T01:53:55;99550.72;;;8.05;100.00
11413;BME280;5762;43.256;26.960;2023-10-19T01:56:24;99552.33;;;8.06;100.00
11413;BME280;5762;43.256;26.960;2023-10-19T01:58:53;99548.27;;;8.08;100.00
11413;BME280;5762;43.256;26.960;2023-10-19T02:01:21;99544.77;;;8.08;100.00
11413;BME280;5762;43.256;26.960;2023-10-19T02:03:58;99545.83;;;8.10;100.00
11413;BME280;5762;43.256;26.960;2023-10-19T02:06:27;99535.20;;;8.21;100.00
11413;BME280;5762;43.256;26.960;2023-10-19T02:09:00;99545.66;;;8.25;100.00
11413;BME280;5762;43.256;26.960;2023-10-19T02:11:30;99539.70;;;8.28;100.00
11413;BME280;5762;43.256;26.960;2023-10-19T02:13:59;99538.01;;;8.32;100.00
11413;BME280;5762;43.256;26.960;2023-10-19T02:16:27;99543.58;;;8.43;100.00
11413;BME280;5762;43.256;26.960;2023-10-19T02:18:59;99543.09;;;8.38;100.00
11413;BME280;5762;43.256;26.960;2023-10-19T02:21:28;99543.17;;;8.31;100.00
11413;BME280;5762;43.256;26.960;2023-10-19T02:23:57;99542.42;;;8.25;100.00
11413;BME280;5762;43.256;26.960;2023-10-19T02:26:26;99548.67;;;8.21;100.00
11413;BME280;5762;43.256;26.960;2023-10-19T02:28:55;99548.41;;;8.20;100.00
11413;BME280;5762;43.256;26.960;2023-10-19T02:31:24;99550.33;;;8.17;100.00
11413;BME280;5762;43.256;26.960;2023-10-19T02:33:54;99549.02;;;8.14;100.00
11413;BME280;5762;43.256;26.960;2023-10-19T02:36:26;99549.84;;;8.12;100.00
11413;BME280;5762;43.256;26.960;2023-10-19T02:39:04;99558.22;;;8.11;100.00
11413;BME280;5762;43.256;26.960;2023-10-19T02:41:28;99551.78;;;8.06;100.00
11413;BME280;5762;43.256;26.960;2023-10-19T02:43:56;99548.57;;;8.04;100.00
11413;BME280;5762;43.256;26.960;2023-10-19T02:46:32;99547.98;;;8.10;100.00
11413;BME280;5762;43.256;26.960;2023-10-19T02:49:01;99553.44;;;8.02;100.00
11413;BME280;5762;43.256;26.960;2023-10-19T02:51:30;99560.75;;;7.99;100.00
11413;BME280;5762;43.256;26.960;2023-10-19T02:53:58;99556.78;;;7.94;100.00
11413;BME280;5762;43.256;26.960;2023-10-19T02:56:28;99558.39;;;7.95;100.00
11413;BME280;5762;43.256;26.960;2023-10-19T02:59:00;99558.70;;;7.91;100.00
11413;BME280;5762;43.256;26.960;2023-10-19T03:01:31;99551.68;;;7.93;100.00
11413;BME280;5762;43.256;26.960;2023-10-19T03:04:01;99550.41;;;7.85;100.00
11413;BME280;5762;43.256;26.960;2023-10-19T03:06:33;99549.71;;;7.72;100.00
11413;BME280;5762;43.256;26.960;2023-10-19T03:09:05;99545.41;;;7.71;100.00
11413;BME280;5762;43.256;26.960;2023-10-19T03:11:43;99547.58;;;7.69;100.00
11413;BME280;5762;43.256;26.960;2023-10-19T03:14:11;99543.02;;;7.67;100.00
11413;BME280;5762;43.256;26.960;2023-10-19T03:16:40;99542.72;;;7.71;100.00
11413;BME280;5762;43.256;26.960;2023-10-19T03:19:09;99541.84;;;7.78;100.00
11413;BME280;5762;43.256;26.960;2023-10-19T03:21:39;99539.93;;;7.81;100.00
11413;BME280;5762;43.256;26.960;2023-10-19T03:24:10;99542.37;;;7.80;100.00
11413;BME280;5762;43.256;26.960;2023-10-19T03:26:40;99536.41;;;7.83;100.00
11413;BME280;5762;43.256;26.960;2023-10-19T03:29:09;99539.62;;;7.85;100.00
11413;BME280;5762;43.256;26.960;2023-10-19T03:31:41;99538.28;;;7.85;100.00
11413;BME280;5762;43.256;26.960;2023-10-19T03:34:13;99525.88;;;7.87;100.00
11413;BME280;5762;43.256;26.960;2023-10-19T03:36:44;99524.62;;;8.00;100.00
11413;BME280;5762;43.256;26.960;2023-10-19T03:39:13;99525.95;;;8.03;100.00
11413;BME280;5762;43.256;26.960;2023-10-19T03:41:42;99520.25;;;8.07;100.00
11413;BME280;5762;43.256;26.960;2023-10-19T03:44:11;99521.86;;;8.08;100.00
11413;BME280;5762;43.256;26.960;2023-10-19T03:46:55;99520.86;;;8.25;100.00
11413;BME280;5762;43.256;26.960;2023-10-19T03:49:24;99514.61;;;8.30;100.00
11413;BME280;5762;43.256;26.960;2023-10-19T03:51:56;99521.63;;;8.28;100.00
11413;BME280;5762;43.256;26.960;2023-10-19T03:54:28;99523.58;;;8.23;100.00
11413;BME280;5762;43.256;26.960;2023-10-19T03:56:57;99518.25;;;8.18;100.00
11413;BME280;5762;43.256;26.960;2023-10-19T03:59:26;99518.61;;;8.08;100.00
11413;BME280;5762;43.256;26.960;2023-10-19T04:01:55;99514.02;;;8.09;100.00
11413;BME280;5762;43.256;26.960;2023-10-19T04:04:24;99513.20;;;8.11;100.00
11413;BME280;5762;43.256;26.960;2023-10-19T04:06:53;99514.86;;;8.07;100.00
11413;BME280;5762;43.256;26.960;2023-10-19T04:09:23;99510.53;;;8.08;100.00
11413;BME280;5762;43.256;26.960;2023-10-19T04:11:52;99504.00;;;8.15;100.00
11413;BME280;5762;43.256;26.960;2023-10-19T04:14:21;99512.88;;;8.15;100.00
11413;BME280;5762;43.256;26.960;2023-10-19T04:16:50;99513.40;;;8.17;100.00
11413;BME280;5762;43.256;26.960;2023-10-19T04:19:19;99514.26;;;8.13;100.00
11413;BME280;5762;43.256;26.960;2023-10-19T04:21:48;99513.48;;;8.10;100.00
11413;BME280;5762;43.256;26.960;2023-10-19T04:24:17;99519.47;;;8.04;100.00
11413;BME280;5762;43.256;26.960;2023-10-19T04:26:45;99512.61;;;7.93;100.00
11413;BME280;5762;43.256;26.960;2023-10-19T04:29:14;99515.36;;;7.88;100.00
11413;BME280;5762;43.256;26.960;2023-10-19T04:31:47;99515.89;;;7.87;100.00
11413;BME280;5762;43.256;26.960;2023-10-19T04:34:19;99511.81;;;7.92;100.00
11413;BME280;5762;43.256;26.960;2023-10-19T04:36:48;99512.76;;;8.01;100.00
11413;BME280;5762;43.256;26.960;2023-10-19T04:39:16;99508.80;;;7.96;100.00
11413;BME280;5762;43.256;26.960;2023-10-19T04:41:45;99508.98;;;8.02;100.00
11413;BME280;5762;43.256;26.960;2023-10-19T04:44:14;99511.16;;;8.00;100.00
11413;BME280;5762;43.256;26.960;2023-10-19T04:46:43;99516.28;;;7.99;100.00
11413;BME280;5762;43.256;26.960;2023-10-19T04:49:12;99517.42;;;7.96;100.00
11413;BME280;5762;43.256;26.960;2023-10-19T04:51:41;99518.52;;;7.95;100.00
11413;BME280;5762;43.256;26.960;2023-10-19T04:54:10;99513.48;;;7.86;100.00
11413;BME280;5762;43.256;26.960;2023-10-19T04:56:38;99519.19;;;7.82;100.00
11413;BME280;5762;43.256;26.960;2023-10-19T04:59:07;99523.25;;;7.79;100.00
11413;BME280;5762;43.256;26.960;2023-10-19T05:01:36;99518.90;;;7.83;100.00
11413;BME280;5762;43.256;26.960;2023-10-19T05:04:04;99520.53;;;7.82;100.00
11413;BME280;5762;43.256;26.960;2023-10-19T05:06:33;99525.89;;;7.84;100.00
11413;BME280;5762;43.256;26.960;2023-10-19T05:09:02;99524.03;;;7.82;100.00
11413;BME280;5762;43.256;26.960;2023-10-19T05:11:30;99521.62;;;7.81;100.00
11413;BME280;5762;43.256;26.960;2023-10-19T05:13:58;99520.77;;;7.85;100.00
11413;BME280;5762;43.256;26.960;2023-10-19T05:16:27;99522.30;;;7.94;100.00
11413;BME280;5762;43.256;26.960;2023-10-19T05:18:56;99524.42;;;7.97;100.00
11413;BME280;5762;43.256;26.960;2023-10-19T05:21:24;99525.09;;;8.07;100.00
11413;BME280;5762;43.256;26.960;2023-10-19T05:23:53;99521.52;;;8.15;100.00
11413;BME280;5762;43.256;26.960;2023-10-19T05:26:22;99526.88;;;8.17;100.00
11413;BME280;5762;43.256;26.960;2023-10-19T05:28:51;99526.28;;;8.23;100.00
11413;BME280;5762;43.256;26.960;2023-10-19T05:31:19;99523.01;;;8.26;100.00
11413;BME280;5762;43.256;26.960;2023-10-19T05:33:48;99523.95;;;8.37;100.00
11413;BME280;5762;43.256;26.960;2023-10-19T05:36:17;99523.80;;;8.50;100.00
11413;BME280;5762;43.256;26.960;2023-10-19T05:38:46;99520.75;;;8.57;100.00
11413;BME280;5762;43.256;26.960;2023-10-19T05:41:14;99526.59;;;8.64;100.00
11413;BME280;5762;43.256;26.960;2023-10-19T05:43:44;99532.06;;;8.78;100.00
11413;BME280;5762;43.256;26.960;2023-10-19T05:46:13;99529.52;;;8.86;100.00
11413;BME280;5762;43.256;26.960;2023-10-19T05:48:42;99532.30;;;9.00;100.00
11413;BME280;5762;43.256;26.960;2023-10-19T05:51:11;99526.72;;;9.10;100.00
11413;BME280;5762;43.256;26.960;2023-10-19T05:53:40;99525.26;;;9.18;100.00
11413;BME280;5762;43.256;26.960;2023-10-19T05:56:10;99517.34;;;9.24;100.00
11413;BME280;5762;43.256;26.960;2023-10-19T05:58:39;99527.54;;;9.43;100.00
11413;BME280;5762;43.256;26.960;2023-10-19T06:01:08;99525.47;;;9.54;100.00
11413;BME280;5762;43.256;26.960;2023-10-19T06:03:36;99526.41;;;9.63;100.00
11413;BME280;5762;43.256;26.960;2023-10-19T06:06:05;99519.23;;;9.86;100.00
11413;BME280;5762;43.256;26.960;2023-10-19T06:08:34;99523.69;;;10.06;100.00
11413;BME280;5762;43.256;26.960;2023-10-19T06:11:03;99522.44;;;10.15;100.00
11413;BME280;5762;43.256;26.960;2023-10-19T06:13:32;99516.48;;;10.43;100.00
11413;BME280;5762;43.256;26.960;2023-10-19T06:16:00;99513.70;;;10.73;100.00
11413;BME280;5762;43.256;26.960;2023-10-19T06:18:29;99515.52;;;11.00;100.00
11413;BME280;5762;43.256;26.960;2023-10-19T06:20:57;99508.83;;;11.08;100.00
11413;BME280;5762;43.256;26.960;2023-10-19T06:23:26;99516.45;;;11.29;100.00
11413;BME280;5762;43.256;26.960;2023-10-19T06:25:55;99515.38;;;11.61;100.00
11413;BME280;5762;43.256;26.960;2023-10-19T06:28:24;99519.34;;;11.77;100.00
11413;BME280;5762;43.256;26.960;2023-10-19T06:30:53;99513.48;;;11.92;100.00
11413;BME280;5762;43.256;26.960;2023-10-19T06:33:21;99525.84;;;12.07;100.00
11413;BME280;5762;43.256;26.960;2023-10-19T06:35:50;99528.02;;;12.36;100.00
11413;BME280;5762;43.256;26.960;2023-10-19T06:38:19;99532.52;;;12.58;100.00
11413;BME280;5762;43.256;26.960;2023-10-19T06:40:48;99535.12;;;12.71;100.00
11413;BME280;5762;43.256;26.960;2023-10-19T06:43:16;99536.63;;;12.84;100.00
11413;BME280;5762;43.256;26.960;2023-10-19T06:45:44;99540.34;;;13.05;100.00
11413;BME280;5762;43.256;26.960;2023-10-19T06:48:13;99537.80;;;13.17;100.00
11413;BME280;5762;43.256;26.960;2023-10-19T06:50:42;99541.23;;;13.29;100.00
11413;BME280;5762;43.256;26.960;2023-10-19T06:53:11;99542.59;;;13.37;100.00
11413;BME280;5762;43.256;26.960;2023-10-19T06:55:39;99542.42;;;13.51;100.00
11413;BME280;5762;43.256;26.960;2023-10-19T06:58:08;99541.50;;;13.70;100.00
11413;BME280;5762;43.256;26.960;2023-10-19T07:00:37;99542.44;;;13.83;100.00
11413;BME280;5762;43.256;26.960;2023-10-19T07:03:06;99547.33;;;13.98;100.00
11413;BME280;5762;43.256;26.960;2023-10-19T07:05:35;99549.70;;;14.08;100.00
11413;BME280;5762;43.256;26.960;2023-10-19T07:08:04;99548.17;;;14.28;100.00
11413;BME280;5762;43.256;26.960;2023-10-19T07:10:33;99562.22;;;14.39;100.00
11413;BME280;5762;43.256;26.960;2023-10-19T07:13:04;99583.11;;;14.50;100.00
11413;BME280;5762;43.256;26.960;2023-10-19T07:15:32;99612.31;;;14.70;100.00
11413;BME280;5762;43.256;26.960;2023-10-19T07:18:01;99645.49;;;14.87;100.00
11413;BME280;5762;43.256;26.960;2023-10-19T07:20:30;99649.27;;;14.94;100.00
11413;BME280;5762;43.256;26.960;2023-10-19T07:23:05;99640.86;;;15.08;100.00
11413;BME280;5762;43.256;26.960;2023-10-19T07:25:46;99641.89;;;15.24;100.00
11413;BME280;5762;43.256;26.960;2023-10-19T07:28:17;99639.95;;;15.46;100.00
11413;BME280;5762;43.256;26.960;2023-10-19T07:30:45;99630.52;;;15.58;100.00
11413;BME280;5762;43.256;26.960;2023-10-19T07:33:14;99634.64;;;15.49;100.00
11413;BME280;5762;43.256;26.960;2023-10-19T07:35:47;99628.81;;;15.65;100.00
11413;BME280;5762;43.256;26.960;2023-10-19T07:38:16;99621.48;;;15.78;100.00
11413;BME280;5762;43.256;26.960;2023-10-19T07:40:44;99627.67;;;15.87;100.00
11413;BME280;5762;43.256;26.960;2023-10-19T07:43:13;99619.63;;;16.03;100.00
11413;BME280;5762;43.256;26.960;2023-10-19T07:45:42;99615.13;;;16.19;100.00
11413;BME280;5762;43.256;26.960;2023-10-19T07:48:11;99613.53;;;16.30;100.00
11413;BME280;5762;43.256;26.960;2023-10-19T07:50:40;99617.66;;;16.49;100.00
11413;BME280;5762;43.256;26.960;2023-10-19T07:53:09;99610.52;;;16.68;100.00
11413;BME280;5762;43.256;26.960;2023-10-19T07:55:37;99616.89;;;16.72;100.00
11413;BME280;5762;43.256;26.960;2023-10-19T07:58:06;99610.30;;;16.92;100.00
11413;BME280;5762;43.256;26.960;2023-10-19T08:00:34;99618.90;;;17.18;100.00
11413;BME280;5762;43.256;26.960;2023-10-19T08:03:02;99619.70;;;17.19;100.00
11413;BME280;5762;43.256;26.960;2023-10-19T08:05:32;99616.85;;;17.15;100.00
11413;BME280;5762;43.256;26.960;2023-10-19T08:08:01;99611.25;;;17.24;100.00
11413;BME280;5762;43.256;26.960;2023-10-19T08:10:30;99619.76;;;17.34;100.00
11413;BME280;5762;43.256;26.960;2023-10-19T08:12:59;99614.52;;;17.35;100.00
11413;BME280;5762;43.256;26.960;2023-10-19T08:15:28;99616.53;;;17.51;100.00
11413;BME280;5762;43.256;26.960;2023-10-19T08:17:57;99614.11;;;17.61;100.00
11413;BME280;5762;43.256;26.960;2023-10-19T08:20:25;99616.62;;;17.66;100.00
11413;BME280;5762;43.256;26.960;2023-10-19T08:22:59;99620.07;;;17.85;100.00
11413;BME280;5762;43.256;26.960;2023-10-19T08:25:29;99614.14;;;17.83;100.00
11413;BME280;5762;43.256;26.960;2023-10-19T08:27:57;99608.89;;;17.84;100.00
11413;BME280;5762;43.256;26.960;2023-10-19T08:30:25;99600.84;;;17.97;100.00
11413;BME280;5762;43.256;26.960;2023-10-19T08:32:54;99604.16;;;18.13;100.00
11413;BME280;5762;43.256;26.960;2023-10-19T08:35:23;99611.02;;;18.13;100.00
11413;BME280;5762;43.256;26.960;2023-10-19T08:37:52;99609.45;;;18.05;100.00
11413;BME280;5762;43.256;26.960;2023-10-19T08:40:22;99610.41;;;18.19;100.00
11413;BME280;5762;43.256;26.960;2023-10-19T08:42:52;99607.89;;;18.20;100.00
11413;BME280;5762;43.256;26.960;2023-10-19T08:45:21;99602.25;;;18.29;100.00
11413;BME280;5762;43.256;26.960;2023-10-19T08:48:00;99607.69;;;18.35;100.00
11413;BME280;5762;43.256;26.960;2023-10-19T08:50:25;99605.81;;;18.55;100.00
11413;BME280;5762;43.256;26.960;2023-10-19T08:52:54;99617.08;;;18.65;100.00
11413;BME280;5762;43.256;26.960;2023-10-19T08:55:23;99616.03;;;18.80;100.00
11413;BME280;5762;43.256;26.960;2023-10-19T08:57:52;99617.20;;;19.04;100.00
11413;BME280;5762;43.256;26.960;2023-10-19T09:00:20;99615.69;;;19.16;100.00
11413;BME280;5762;43.256;26.960;2023-10-19T09:02:50;99623.31;;;19.07;100.00
11413;BME280;5762;43.256;26.960;2023-10-19T09:05:20;99635.33;;;19.18;100.00
11413;BME280;5762;43.256;26.960;2023-10-19T09:07:52;99628.00;;;19.32;100.00
11413;BME280;5762;43.256;26.960;2023-10-19T09:10:24;99621.00;;;19.34;100.00
11413;BME280;5762;43.256;26.960;2023-10-19T09:12:59;99615.47;;;19.05;100.00
11413;BME280;5762;43.256;26.960;2023-10-19T09:15:29;99611.05;;;19.11;100.00
11413;BME280;5762;43.256;26.960;2023-10-19T09:18:11;99604.00;;;19.19;100.00
11413;BME280;5762;43.256;26.960;2023-10-19T09:20:29;99593.83;;;19.29;100.00
11413;BME280;5762;43.256;26.960;2023-10-19T09:22:58;99591.36;;;19.43;100.00
11413;BME280;5762;43.256;26.960;2023-10-19T09:25:27;99580.82;;;19.46;100.00
11413;BME280;5762;43.256;26.960;2023-10-19T09:27:56;99576.80;;;19.39;100.00
11413;BME280;5762;43.256;26.960;2023-10-19T09:30:25;99586.89;;;19.45;100.00
11413;BME280;5762;43.256;26.960;2023-10-19T09:32:54;99580.19;;;19.33;100.00
11413;BME280;5762;43.256;26.960;2023-10-19T09:35:24;99577.89;;;19.54;100.00
11413;BME280;5762;43.256;26.960;2023-10-19T09:37:56;99563.73;;;19.71;100.00
11413;BME280;5762;43.256;26.960;2023-10-19T09:40:25;99563.52;;;19.51;100.00
11413;BME280;5762;43.256;26.960;2023-10-19T09:42:55;99566.45;;;19.42;100.00
11413;BME280;5762;43.256;26.960;2023-10-19T09:45:24;99557.45;;;19.52;100.00
11413;BME280;5762;43.256;26.960;2023-10-19T09:47:53;99550.27;;;19.47;100.00
11413;BME280;5762;43.256;26.960;2023-10-19T09:50:22;99550.59;;;19.61;100.00
11413;BME280;5762;43.256;26.960;2023-10-19T09:52:51;99553.06;;;19.89;100.00
11413;BME280;5762;43.256;26.960;2023-10-19T09:55:28;99553.11;;;20.02;100.00
11413;BME280;5762;43.256;26.960;2023-10-19T09:57:59;99549.30;;;20.11;100.00
11413;BME280;5762;43.256;26.960;2023-10-19T10:00:26;99553.55;;;20.18;100.00
11413;BME280;5762;43.256;26.960;2023-10-19T10:02:55;99544.70;;;20.28;100.00
11413;BME280;5762;43.256;26.960;2023-10-19T10:10:50;99538.61;;;20.51;100.00
11413;BME280;5762;43.256;26.960;2023-10-19T10:15:55;99531.27;;;20.59;100.00
11413;BME280;5762;43.256;26.960;2023-10-19T10:18:24;99536.62;;;20.74;100.00
11413;BME280;5762;43.256;26.960;2023-10-19T10:23:41;99525.27;;;20.80;100.00
11413;BME280;5762;43.256;26.960;2023-10-19T10:26:11;99525.19;;;20.72;100.00
11413;BME280;5762;43.256;26.960;2023-10-19T10:28:41;99519.95;;;20.77;100.00
11413;BME280;5762;43.256;26.960;2023-10-19T10:31:19;99522.41;;;20.86;100.00
11413;BME280;5762;43.256;26.960;2023-10-19T10:33:52;99516.59;;;20.91;100.00
11413;BME280;5762;43.256;26.960;2023-10-19T10:36:24;99517.85;;;20.97;100.00
11413;BME280;5762;43.256;26.960;2023-10-19T10:38:53;99512.82;;;21.02;100.00
11413;BME280;5762;43.256;26.960;2023-10-19T10:41:22;99498.85;;;21.01;100.00
11413;BME280;5762;43.256;26.960;2023-10-19T10:43:58;99487.31;;;21.05;100.00
11413;BME280;5762;43.256;26.960;2023-10-19T10:46:27;99494.88;;;21.16;100.00
11413;BME280;5762;43.256;26.960;2023-10-19T10:48:56;99494.67;;;20.98;100.00
11413;BME280;5762;43.256;26.960;2023-10-19T10:51:26;99486.74;;;20.93;100.00
11413;BME280;5762;43.256;26.960;2023-10-19T10:53:55;99484.69;;;20.86;100.00
11413;BME280;5762;43.256;26.960;2023-10-19T10:56:24;99477.65;;;20.89;100.00
11413;BME280;5762;43.256;26.960;2023-10-19T10:58:52;99469.19;;;20.88;100.00
11413;BME280;5762;43.256;26.960;2023-10-19T11:01:34;99471.97;;;21.04;100.00
11413;BME280;5762;43.256;26.960;2023-10-19T11:04:10;99463.06;;;21.18;100.00
11413;BME280;5762;43.256;26.960;2023-10-19T11:06:46;99476.69;;;21.21;100.00
11413;BME280;5762;43.256;26.960;2023-10-19T11:09:15;99477.03;;;21.32;100.00
11413;BME280;5762;43.256;26.960;2023-10-19T11:11:46;99470.77;;;21.35;100.00
11413;BME280;5762;43.256;26.960;2023-10-19T11:14:15;99467.69;;;21.24;100.00
11413;BME280;5762;43.256;26.960;2023-10-19T11:16:44;99459.80;;;21.22;100.00
11413;BME280;5762;43.256;26.960;2023-10-19T11:19:13;99449.08;;;21.14;100.00
11413;BME280;5762;43.256;26.960;2023-10-19T11:21:52;99448.67;;;21.15;100.00
11413;BME280;5762;43.256;26.960;2023-10-19T11:24:26;99440.33;;;21.21;100.00
11413;BME280;5762;43.256;26.960;2023-10-19T11:26:55;99436.48;;;21.50;100.00
11413;BME280;5762;43.256;26.960;2023-10-19T11:29:23;99431.80;;;21.54;100.00
11413;BME280;5762;43.256;26.960;2023-10-19T11:31:58;99434.30;;;21.46;100.00
11413;BME280;5762;43.256;26.960;2023-10-19T11:34:28;99421.54;;;21.47;100.00
11413;BME280;5762;43.256;26.960;2023-10-19T11:36:56;99424.25;;;21.44;100.00
11413;BME280;5762;43.256;26.960;2023-10-19T11:39:26;99428.55;;;21.41;100.00
11413;BME280;5762;43.256;26.960;2023-10-19T11:41:55;99427.47;;;21.53;100.00
11413;BME280;5762;43.256;26.960;2023-10-19T11:44:24;99425.44;;;21.26;100.00
11413;BME280;5762;43.256;26.960;2023-10-19T11:46:53;99430.73;;;21.25;100.00
11413;BME280;5762;43.256;26.960;2023-10-19T11:49:22;99426.60;;;21.25;100.00
11413;BME280;5762;43.256;26.960;2023-10-19T11:51:51;99411.30;;;21.27;100.00
11413;BME280;5762;43.256;26.960;2023-10-19T11:54:19;99413.47;;;21.28;100.00
11413;BME280;5762;43.256;26.960;2023-10-19T11:56:48;99411.58;;;21.35;100.00
11413;BME280;5762;43.256;26.960;2023-10-19T11:59:17;99419.75;;;21.45;100.00
11413;BME280;5762;43.256;26.960;2023-10-19T12:01:46;99417.05;;;21.32;100.00
11413;BME280;5762;43.256;26.960;2023-10-19T12:04:14;99414.69;;;21.17;100.00
11413;BME280;5762;43.256;26.960;2023-10-19T12:06:43;99410.88;;;21.25;100.00
11413;BME280;5762;43.256;26.960;2023-10-19T12:09:15;99411.86;;;21.44;100.00
11413;BME280;5762;43.256;26.960;2023-10-19T12:11:44;99402.84;;;21.47;100.00
11413;BME280;5762;43.256;26.960;2023-10-19T12:14:13;99395.14;;;21.43;100.00
11413;BME280;5762;43.256;26.960;2023-10-19T12:16:42;99402.06;;;21.50;100.00
11413;BME280;5762;43.256;26.960;2023-10-19T12:19:10;99392.63;;;21.47;100.00
11413;BME280;5762;43.256;26.960;2023-10-19T12:21:39;99393.63;;;21.52;100.00
11413;BME280;5762;43.256;26.960;2023-10-19T12:24:08;99393.05;;;21.53;100.00
11413;BME280;5762;43.256;26.960;2023-10-19T12:26:36;99385.94;;;21.28;100.00
11413;BME280;5762;43.256;26.960;2023-10-19T12:29:05;99383.98;;;21.28;100.00
11413;BME280;5762;43.256;26.960;2023-10-19T12:31:34;99388.39;;;21.36;100.00
11413;BME280;5762;43.256;26.960;2023-10-19T12:34:04;99381.15;;;21.21;100.00
11413;BME280;5762;43.256;26.960;2023-10-19T12:36:34;99372.11;;;21.04;100.00
11413;BME280;5762;43.256;26.960;2023-10-19T12:39:02;99369.32;;;21.00;100.00
11413;BME280;5762;43.256;26.960;2023-10-19T12:41:34;99370.98;;;21.08;100.00
11413;BME280;5762;43.256;26.960;2023-10-19T12:44:04;99370.80;;;21.28;100.00
11413;BME280;5762;43.256;26.960;2023-10-19T12:46:35;99373.53;;;21.07;100.00
11413;BME280;5762;43.256;26.960;2023-10-19T12:49:06;99371.02;;;21.12;100.00
11413;BME280;5762;43.256;26.960;2023-10-19T12:51:38;99365.52;;;21.12;100.00
11413;BME280;5762;43.256;26.960;2023-10-19T12:54:07;99361.39;;;21.12;100.00
11413;BME280;5762;43.256;26.960;2023-10-19T12:56:36;99349.94;;;21.06;100.00
11413;BME280;5762;43.256;26.960;2023-10-19T12:59:05;99349.52;;;20.88;100.00
11413;BME280;5762;43.256;26.960;2023-10-19T13:01:34;99354.02;;;20.86;100.00
11413;BME280;5762;43.256;26.960;2023-10-19T13:04:03;99356.27;;;20.94;100.00
11413;BME280;5762;43.256;26.960;2023-10-19T13:06:31;99346.02;;;20.91;100.00
11413;BME280;5762;43.256;26.960;2023-10-19T13:09:00;99350.44;;;20.99;100.00
11413;BME280;5762;43.256;26.960;2023-10-19T13:11:29;99349.44;;;21.18;100.00
11413;BME280;5762;43.256;26.960;2023-10-19T13:13:58;99347.63;;;21.12;100.00
11413;BME280;5762;43.256;26.960;2023-10-19T13:16:27;99342.47;;;21.07;100.00
11413;BME280;5762;43.256;26.960;2023-10-19T13:18:57;99340.17;;;21.16;100.00